Aeroporto :
LOGIN :

Iscrizione | Disclaimer

   EN    FR    IT 

 










Sommario :    VFR   VFR Marginale   IFR   IFR Intensivo   IFR Molto Intensivo
Visibilità : 
Base nubi : 
>= 8 km
>= 3000ft
5 / 8 km
1000 / 3000 ft
1500m / 5 km
500 / 1000 ft
800 / 1500m
200 / 500 ft
< 800m
< 200 ft
Simboli :   Temporali  Nebbia  Neve Forte  Precipitazioni Forti  Vento > 20 kt
SIGMETs :   Varie  Temporali  Ghiacco  Turbolenza  Onda orograficha  Ceneri Vulcaniche






- Altitudine del aeroporto : 614 ft
- Codice IATA : CRL


EBCI - Charleroi

ULTIMO METAR :
  • 061950Z 02006KT 340V040 CAVOK 00/M01 Q1038 NOSIG

METARs OBSOLETI :
  • 061920Z 36005KT 300V020 9999 FEW018 01/M01 Q1039 NOSIG
  • 061850Z 01006KT 9999 FEW018 01/M01 Q1039 NOSIG
  • 061820Z 03006KT 340V040 9999 FEW018 01/M01 Q1039 NOSIG
  • 061750Z 04006KT 360V060 9999 FEW018 02/M01 Q1039 NOSIG
  • 061720Z 06009KT 9999 FEW018 02/M00 Q1039 NOSIG
  • 061650Z 06010KT 9999 FEW018 03/00 Q1039 NOSIG

TAF TAF EBCI
Valido dal 06 a 18 ore il 08 a 00 ore UTC


061701Z 0618/0724 05007KT 9999 FEW020
BECMG 0622/0701 3500 BR
PROB40
TEMPO 0700/0709 2000 MIFG
PROB30
TEMPO 0701/0708 0400 FZFG OVC001
BECMG 0708/0710 CAVOK



MetMap, La meteo Aeronautica in un colpo d'occhio ! - Copyright ORBIFLY Dicembre 2007 - Disclaimer

ORBIFLY MET'MAP TEAM :

Programmazione e sviluppo : Alexandra Zaïnal
Concezione : Baudouin d'Aumeries
Supporto tecnico e logistico : Manuel Goepfert
Aiuto : Marc-Olivier Méhu
Aiuto per la traduzione : Arnaldo La Scala




FONTI E CREDITI :

   NOAA